Rayong, Thailand

2:09 AM ICT on August 31, 2016 (GMT +0700)
Mae Rumphueng Beach (750m Inland) | | Change Station

Elev 43 ft 12.62 °N, 101.39 °E | Updated 9 seconds ago

Mostly Cloudy
Mostly Cloudy
78.1 °F
Feels Like 81 °F
N
0.0
Wind Variable Wind from ENE
Gusts 0.0 mph

Today
High -- | Low -- °F
--% Chance of Precip.
Yesterday
High -- | Low -- °F
Precip. -- in
Pressure 29.80 in
Visibility 4.3 miles
Clouds Few 1800 ft
Scattered Clouds 3500 ft
Mostly Cloudy 10000 ft
Heat Index 81 °F
Dew Point 77 °F
Humidity 95%
Rainfall 0.33 in
Snow Depth Not available.
6:03 AM 6:25 PM
Waning Crescent, 3% visible
METAR VTBU 301900Z 09003KT 7000 FEW018CB SCT035 BKN100 27/25 Q1009 NOSIG
Pressure 29.80 in
Visibility 4.3 miles
Clouds Few 1800 ft
Scattered Clouds 3500 ft
Mostly Cloudy 10000 ft
Heat Index 81 °F
Dew Point 77 °F
Humidity 95%
Rainfall 0.33 in
Snow Depth Not available.
6:03 AM 6:25 PM
Waning Crescent, 3% visible
METAR VTBU 301900Z 09003KT 7000 FEW018CB SCT035 BKN100 27/25 Q1009 NOSIG

10-Day Weather Forecast

No radar image for this location.
×

Almanac

Astronomy

Aug. 31, 2016 Rise Set
Actual Time
Civil Twilight
Nautical Twilight
Astronomical Twilight
Moon
Length of Visible Light
Length of Day
Tomorrow will be .
, % of the Moon is Illuminated

Today's Extremes

Country Highs Country Lows

Community

WunderPhotos

Upload Photos

1,935,879 photos uploaded!

WunderBlog® & News

Nearby

Air Quality

  Air Quality AQ Index Pollutant
Not available.

Snow Depth

Station Depth Elevation

Earthquake Activity

City Distance Mag. Time & Date
Minimum magnitude displayed is 2.5.

Coastal Water Temperatures

Place Temperature

Stations

Nearby Weather Stations

Station Location Temp. Windchill Dew Point Humidity Wind Precip. Elev Updated Type